createdAt,value
2023-05-05T00:01:27.790Z,5.10
2023-05-05T00:03:54.539Z,4.30
2023-05-05T00:06:21.279Z,5.40
2023-05-05T00:08:48.051Z,3.40
2023-05-05T00:11:14.740Z,5.10
2023-05-05T00:13:41.538Z,3.70
2023-05-05T00:16:08.483Z,5.10
2023-05-05T00:18:35.184Z,3.80
2023-05-05T00:21:01.955Z,4.60
2023-05-05T00:23:28.694Z,5.30
2023-05-05T00:25:55.548Z,5.10
2023-05-05T00:28:22.293Z,3.70
2023-05-05T00:30:49.050Z,4.80
2023-05-05T00:33:16.169Z,3.30
2023-05-05T00:35:42.956Z,4.60
2023-05-05T00:38:09.659Z,6.20
2023-05-05T00:40:37.418Z,4.50
2023-05-05T00:43:04.576Z,5.90
2023-05-05T00:45:31.536Z,5.90
2023-05-05T00:47:59.817Z,6.20
2023-05-05T00:50:29.562Z,6.00
2023-05-05T00:53:01.516Z,5.60
2023-05-05T00:55:30.079Z,5.60
2023-05-05T00:57:58.114Z,5.20
2023-05-05T01:00:26.414Z,4.80
2023-05-05T01:02:53.196Z,7.10
2023-05-05T01:05:24.058Z,5.60
2023-05-05T01:08:09.251Z,5.10
2023-05-05T01:10:52.345Z,6.70
2023-05-05T01:13:40.909Z,5.30
2023-05-05T01:16:34.538Z,4.20
2023-05-05T01:19:19.879Z,4.60
2023-05-05T01:22:08.485Z,5.40
2023-05-05T01:25:08.837Z,6.00
2023-05-05T01:27:59.043Z,7.00
2023-05-05T01:30:52.598Z,5.30
2023-05-05T01:33:25.576Z,6.30
2023-05-05T01:36:04.422Z,3.60
2023-05-05T01:38:39.748Z,5.60
2023-05-05T01:41:20.459Z,5.30
2023-05-05T01:43:50.440Z,6.00
2023-05-05T01:46:20.108Z,4.30
2023-05-05T01:48:48.206Z,6.20
2023-05-05T01:51:17.604Z,7.60
2023-05-05T01:53:46.650Z,5.50
2023-05-05T01:56:15.807Z,5.40
2023-05-05T01:58:46.729Z,7.20
2023-05-05T02:01:14.002Z,5.50
2023-05-05T02:03:41.685Z,7.60
2023-05-05T02:06:10.655Z,5.30
2023-05-05T02:08:41.280Z,5.00
2023-05-05T02:11:09.971Z,4.90
2023-05-05T02:13:39.003Z,7.00
2023-05-05T02:16:06.916Z,5.40
2023-05-05T02:18:35.422Z,7.50
2023-05-05T02:21:03.267Z,8.30
2023-05-05T02:23:30.314Z,9.90
2023-05-05T02:26:04.439Z,6.90
2023-05-05T02:28:41.517Z,5.90
2023-05-05T02:31:10.286Z,7.60
2023-05-05T02:33:39.226Z,7.20
2023-05-05T02:36:29.801Z,4.40
2023-05-05T02:39:04.027Z,8.30
2023-05-05T02:41:34.120Z,4.80
2023-05-05T02:44:03.820Z,4.60
2023-05-05T02:46:31.143Z,5.60
2023-05-05T02:48:59.285Z,8.60
2023-05-05T02:51:27.437Z,6.30
2023-05-05T02:53:54.467Z,9.00
2023-05-05T02:56:47.334Z,5.00
2023-05-05T02:59:26.562Z,5.40
2023-05-05T03:02:11.824Z,4.00
2023-05-05T03:04:45.657Z,5.70
2023-05-05T03:07:23.310Z,6.40
2023-05-05T03:10:06.034Z,6.20
2023-05-05T03:12:59.875Z,5.70
2023-05-05T03:15:40.796Z,5.40
2023-05-05T03:18:12.278Z,5.00
2023-05-05T03:20:40.474Z,5.30
2023-05-05T03:23:07.974Z,5.30
2023-05-05T03:25:46.801Z,8.40
2023-05-05T03:28:15.231Z,8.20
2023-05-05T03:30:42.348Z,4.20
2023-05-05T03:33:12.173Z,4.90
2023-05-05T03:35:38.830Z,7.30
2023-05-05T03:38:05.465Z,7.20
2023-05-05T03:40:42.954Z,7.70
2023-05-05T03:43:11.004Z,8.20
2023-05-05T03:45:38.033Z,7.70
2023-05-05T03:48:06.574Z,9.00
2023-05-05T03:50:33.306Z,5.20
2023-05-05T03:52:59.989Z,5.20
2023-05-05T03:55:26.935Z,4.70
2023-05-05T03:57:53.579Z,5.90
2023-05-05T04:00:20.332Z,5.40
2023-05-05T04:02:47.127Z,5.20
2023-05-05T04:05:14.107Z,5.30
2023-05-05T04:07:40.836Z,7.70
2023-05-05T04:10:08.658Z,5.60
2023-05-05T04:12:35.530Z,7.70
2023-05-05T04:15:02.543Z,6.10
2023-05-05T04:17:29.222Z,5.40
2023-05-05T04:19:55.892Z,6.30
2023-05-05T04:22:22.570Z,5.70
2023-05-05T04:24:49.273Z,7.90
2023-05-05T04:27:15.918Z,8.90
2023-05-05T04:29:42.597Z,7.20
2023-05-05T04:32:09.313Z,5.20
2023-05-05T04:34:36.532Z,6.30
2023-05-05T04:37:03.208Z,7.30
2023-05-05T04:39:29.955Z,7.40
2023-05-05T04:41:56.691Z,8.70
2023-05-05T04:44:23.342Z,5.40
2023-05-05T04:46:50.179Z,7.20
2023-05-05T04:49:16.999Z,7.80
2023-05-05T04:51:43.756Z,5.90
2023-05-05T04:54:10.473Z,7.20
2023-05-05T04:56:37.337Z,8.90
2023-05-05T04:59:04.069Z,6.80
2023-05-05T05:01:31.111Z,6.50
2023-05-05T05:03:58.020Z,8.40
2023-05-05T05:06:24.842Z,5.20
2023-05-05T05:08:51.490Z,7.90
2023-05-05T05:11:18.154Z,6.50
2023-05-05T05:13:45.810Z,7.70
2023-05-05T05:16:12.908Z,8.50
2023-05-05T05:18:39.597Z,7.80
2023-05-05T05:21:06.720Z,7.30
2023-05-05T05:23:33.448Z,7.80
2023-05-05T05:26:00.279Z,7.60
2023-05-05T05:28:27.300Z,6.70
2023-05-05T05:30:53.979Z,10.30
2023-05-05T05:33:20.820Z,7.90
2023-05-05T05:35:47.875Z,8.90
2023-05-05T05:38:14.573Z,9.60
2023-05-05T05:40:41.681Z,6.10
2023-05-05T05:43:08.354Z,9.80
2023-05-05T05:45:35.251Z,8.60
2023-05-05T05:48:02.006Z,7.10
2023-05-05T05:50:28.834Z,6.50
2023-05-05T05:52:55.742Z,12.20
2023-05-05T05:55:22.476Z,11.30
2023-05-05T05:57:49.239Z,7.20
2023-05-05T06:00:16.277Z,7.10
2023-05-05T06:02:43.223Z,5.50
2023-05-05T06:05:10.056Z,6.50
2023-05-05T06:07:36.717Z,7.10
2023-05-05T06:10:18.448Z,10.90
2023-05-05T06:12:51.968Z,7.20
2023-05-05T06:15:18.786Z,10.00
2023-05-05T06:17:45.586Z,9.60
2023-05-05T06:20:13.259Z,8.00
2023-05-05T06:22:40.303Z,9.80
2023-05-05T06:25:07.903Z,8.70
2023-05-05T06:27:34.722Z,7.00
2023-05-05T06:30:01.414Z,6.70
2023-05-05T06:32:28.271Z,9.80
2023-05-05T06:34:55.223Z,7.60
2023-05-05T06:37:22.057Z,8.70
2023-05-05T06:39:48.808Z,8.10
2023-05-05T06:42:15.738Z,8.30
2023-05-05T06:44:42.528Z,11.50
2023-05-05T06:47:09.270Z,8.10
2023-05-05T06:49:36.712Z,7.30
2023-05-05T06:52:03.632Z,8.10
2023-05-05T06:54:30.279Z,8.40
2023-05-05T06:56:59.300Z,13.20
2023-05-05T06:59:26.523Z,7.60
2023-05-05T07:01:53.124Z,11.30
2023-05-05T07:04:20.810Z,7.60
2023-05-05T07:06:47.611Z,6.10
2023-05-05T07:09:16.420Z,11.50
2023-05-05T07:11:43.736Z,9.90
2023-05-05T07:14:10.463Z,8.90
2023-05-05T07:16:37.504Z,7.70
2023-05-05T07:19:07.038Z,6.70
2023-05-05T07:21:34.093Z,8.10
2023-05-05T07:24:02.779Z,7.50
2023-05-05T07:26:29.659Z,7.80
2023-05-05T07:28:58.079Z,8.80
2023-05-05T07:31:25.889Z,9.30
2023-05-05T07:33:53.050Z,8.20
2023-05-05T07:36:19.873Z,9.60
2023-05-05T07:38:46.617Z,9.10
2023-05-05T07:41:13.403Z,6.30
2023-05-05T07:43:44.640Z,7.70
2023-05-05T07:46:12.059Z,7.50
2023-05-05T07:48:40.755Z,9.70
2023-05-05T07:51:07.477Z,9.40
2023-05-05T07:53:34.273Z,8.10
2023-05-05T07:56:01.093Z,7.50
2023-05-05T07:58:27.820Z,11.00
2023-05-05T08:00:54.660Z,9.10
2023-05-05T08:03:28.212Z,7.20
2023-05-05T08:05:55.930Z,6.30
2023-05-05T08:08:23.893Z,13.30
2023-05-05T08:10:51.475Z,6.50
2023-05-05T08:13:18.149Z,7.80
2023-05-05T08:15:45.008Z,7.90
2023-05-05T08:18:11.851Z,6.40
2023-05-05T08:20:38.621Z,4.70
2023-05-05T08:23:05.787Z,8.10
2023-05-05T08:25:32.588Z,6.00
2023-05-05T08:27:59.353Z,7.00
2023-05-05T08:30:26.517Z,7.10
2023-05-05T08:32:53.648Z,5.60
2023-05-05T08:35:20.505Z,7.60
2023-05-05T08:37:47.243Z,5.80
2023-05-05T08:40:14.387Z,6.70
2023-05-05T08:42:42.396Z,7.50
2023-05-05T08:45:10.688Z,5.50
2023-05-05T08:47:39.044Z,4.90
2023-05-05T08:50:10.664Z,3.90
2023-05-05T08:52:41.159Z,3.80
2023-05-05T08:55:25.819Z,4.80
2023-05-05T08:57:57.272Z,4.60
2023-05-05T09:00:26.457Z,4.60
2023-05-05T09:02:57.703Z,4.70
2023-05-05T09:07:52.955Z,4.00
2023-05-05T09:10:20.029Z,3.50
2023-05-05T09:12:48.954Z,3.20
2023-05-05T09:15:18.786Z,4.00
2023-05-05T09:17:46.608Z,3.70
2023-05-05T09:20:14.540Z,2.50
2023-05-05T09:22:46.807Z,4.40
2023-05-05T09:25:17.714Z,3.50
2023-05-05T09:30:24.861Z,6.90
2023-05-05T09:32:53.842Z,3.20
2023-05-05T09:35:22.756Z,3.40
2023-05-05T09:37:49.497Z,3.50
2023-05-05T09:40:20.865Z,4.40
2023-05-05T09:42:47.693Z,3.00
2023-05-05T09:45:17.361Z,2.90
2023-05-05T09:47:46.319Z,4.40
2023-05-05T09:50:17.949Z,3.40
2023-05-05T09:52:55.923Z,3.30
2023-05-05T09:55:24.000Z,2.10
2023-05-05T09:57:51.419Z,3.50
2023-05-05T10:00:19.356Z,3.90
2023-05-05T10:02:46.263Z,2.80
2023-05-05T10:05:16.022Z,5.90
2023-05-05T10:07:46.004Z,4.90
2023-05-05T10:10:15.610Z,3.00
2023-05-05T10:12:43.408Z,4.00
2023-05-05T10:15:11.428Z,3.30
2023-05-05T10:18:05.114Z,3.60
2023-05-05T10:20:36.440Z,3.30
2023-05-05T10:23:06.359Z,3.40
2023-05-05T10:25:42.016Z,3.20
2023-05-05T10:28:16.372Z,3.60
2023-05-05T10:30:48.919Z,3.30
2023-05-05T10:35:53.458Z,3.60
2023-05-05T10:38:20.274Z,4.10
2023-05-05T10:40:48.348Z,3.90
2023-05-05T10:43:15.152Z,3.30
2023-05-05T10:45:43.401Z,4.40
2023-05-05T10:48:18.643Z,5.70
2023-05-05T10:50:53.216Z,3.50
2023-05-05T10:53:41.838Z,4.60
2023-05-05T10:56:25.901Z,3.70
2023-05-05T10:58:59.727Z,3.60
2023-05-05T11:01:35.653Z,2.40
2023-05-05T11:04:18.811Z,3.20
2023-05-05T11:07:21.926Z,5.70
2023-05-05T11:10:00.799Z,4.60
2023-05-05T11:12:29.065Z,3.90
2023-05-05T11:15:27.012Z,4.00
2023-05-05T11:17:59.595Z,2.90
2023-05-05T11:20:35.695Z,3.30
2023-05-05T11:23:02.359Z,4.80
2023-05-05T11:25:40.056Z,3.80
2023-05-05T11:28:11.253Z,3.70
2023-05-05T11:30:58.243Z,3.30
2023-05-05T11:33:37.149Z,2.80
2023-05-05T11:36:06.750Z,4.80
2023-05-05T11:38:36.742Z,5.10
2023-05-05T11:41:09.581Z,2.40
2023-05-05T11:43:36.594Z,3.30
2023-05-05T11:46:14.861Z,4.00
2023-05-05T11:48:53.906Z,3.50
2023-05-05T11:51:21.573Z,2.50
2023-05-05T11:53:49.284Z,2.30
2023-05-05T11:56:18.480Z,2.20
2023-05-05T11:58:49.385Z,5.20
2023-05-05T12:03:44.862Z,5.10
2023-05-05T12:06:12.757Z,3.70
2023-05-05T12:08:40.940Z,2.80
2023-05-05T12:11:10.088Z,5.20
2023-05-05T12:13:36.822Z,2.80
2023-05-05T12:16:15.296Z,4.20
2023-05-05T12:18:42.265Z,4.20
2023-05-05T12:21:14.095Z,3.30
2023-05-05T12:23:40.982Z,5.10
2023-05-05T12:26:08.299Z,3.80
2023-05-05T12:28:47.725Z,3.20
2023-05-05T12:31:15.444Z,3.10
2023-05-05T12:33:43.141Z,3.40
2023-05-05T12:36:11.792Z,2.90
2023-05-05T12:38:38.482Z,3.50
2023-05-05T12:41:05.440Z,2.70
2023-05-05T12:43:34.250Z,4.70
2023-05-05T12:46:12.448Z,2.50
2023-05-05T12:48:43.997Z,3.20
2023-05-05T12:51:22.625Z,3.50
2023-05-05T12:54:05.835Z,4.60
2023-05-05T12:56:44.931Z,2.70
2023-05-05T12:59:23.418Z,2.60
2023-05-05T13:01:53.070Z,2.60
2023-05-05T13:04:22.703Z,2.60
2023-05-05T13:07:24.970Z,2.90
2023-05-05T13:10:08.422Z,3.40
2023-05-05T13:12:36.136Z,4.20
2023-05-05T13:15:03.524Z,3.20
2023-05-05T13:17:30.781Z,4.10
2023-05-05T13:19:58.542Z,3.50
2023-05-05T13:22:25.268Z,3.90
2023-05-05T13:24:52.919Z,2.60
2023-05-05T13:27:20.112Z,3.30
2023-05-05T13:29:46.961Z,2.10
2023-05-05T13:32:13.667Z,3.00
2023-05-05T13:34:41.920Z,2.80
2023-05-05T13:37:08.747Z,2.90
2023-05-05T13:39:36.310Z,2.70
2023-05-05T13:42:03.205Z,3.70
2023-05-05T13:44:30.035Z,3.10
2023-05-05T13:46:57.227Z,2.80
2023-05-05T13:49:25.027Z,3.20
2023-05-05T13:51:51.854Z,3.70
2023-05-05T13:54:18.595Z,2.70
2023-05-05T13:56:45.570Z,3.00
2023-05-05T13:59:12.258Z,3.00
2023-05-05T14:01:39.179Z,2.90
2023-05-05T14:04:06.332Z,2.20
2023-05-05T14:06:33.272Z,3.20
2023-05-05T14:09:00.040Z,2.40
2023-05-05T14:11:27.026Z,2.60
2023-05-05T14:13:53.884Z,3.70
2023-05-05T14:16:20.549Z,2.90
2023-05-05T14:18:47.305Z,3.10
2023-05-05T14:21:14.078Z,4.20
2023-05-05T14:23:40.771Z,2.10
2023-05-05T14:26:08.362Z,2.40
2023-05-05T14:28:35.276Z,3.20
2023-05-05T14:31:02.034Z,3.50
2023-05-05T14:33:28.776Z,4.10
2023-05-05T14:35:55.496Z,2.80
2023-05-05T14:38:22.573Z,2.60
2023-05-05T14:40:49.410Z,2.80
2023-05-05T14:43:16.182Z,4.30
2023-05-05T14:45:43.711Z,3.30
2023-05-05T14:48:10.426Z,3.60
2023-05-05T14:50:38.019Z,3.60
2023-05-05T14:53:05.046Z,3.00
2023-05-05T14:55:32.312Z,3.90
2023-05-05T14:57:59.039Z,3.30
2023-05-05T15:00:26.306Z,3.80
2023-05-05T15:02:53.089Z,3.20
2023-05-05T15:05:19.961Z,2.60
2023-05-05T15:07:46.684Z,2.40
2023-05-05T15:10:13.317Z,2.90
2023-05-05T15:12:40.121Z,1.50
2023-05-05T15:15:08.163Z,2.80
2023-05-05T15:17:36.894Z,3.40
2023-05-05T15:20:07.575Z,2.50
2023-05-05T15:22:34.318Z,3.90
2023-05-05T15:25:01.245Z,3.60
2023-05-05T15:27:29.474Z,3.50
2023-05-05T15:29:56.193Z,2.20
2023-05-05T15:32:22.870Z,3.10
2023-05-05T15:34:50.523Z,3.10
2023-05-05T15:37:17.579Z,3.30
2023-05-05T15:39:44.372Z,2.70
2023-05-05T15:42:11.207Z,2.60
2023-05-05T15:44:37.900Z,3.20
2023-05-05T15:47:06.146Z,2.50
2023-05-05T15:49:33.064Z,2.30
2023-05-05T15:52:00.155Z,2.10
2023-05-05T15:54:26.883Z,3.40
2023-05-05T15:56:54.327Z,2.60
2023-05-05T15:59:21.031Z,3.90
2023-05-05T16:01:48.049Z,2.20
2023-05-05T16:04:14.979Z,2.70
2023-05-05T16:06:41.795Z,3.20
2023-05-05T16:09:08.727Z,2.50
2023-05-05T16:11:36.700Z,2.80
2023-05-05T16:14:03.953Z,2.60
2023-05-05T16:16:30.627Z,2.20
2023-05-05T16:18:57.562Z,9.20
2023-05-05T16:21:25.197Z,3.80
2023-05-05T16:23:51.971Z,3.80
2023-05-05T16:26:18.702Z,2.30
2023-05-05T16:28:45.386Z,2.60
2023-05-05T16:31:12.919Z,2.70
2023-05-05T16:33:43.022Z,2.60
2023-05-05T16:36:11.671Z,2.90
2023-05-05T16:38:39.749Z,2.00
2023-05-05T16:41:07.092Z,3.00
2023-05-05T16:43:35.361Z,2.50
2023-05-05T16:46:03.273Z,2.80
2023-05-05T16:48:30.074Z,3.30
2023-05-05T16:50:57.413Z,3.20
2023-05-05T16:53:24.795Z,2.40
2023-05-05T16:55:52.977Z,2.50
2023-05-05T16:58:21.815Z,3.30
2023-05-05T17:00:50.254Z,4.20
2023-05-05T17:03:19.656Z,3.40
2023-05-05T17:05:49.994Z,2.00
2023-05-05T17:08:17.241Z,5.40
2023-05-05T17:10:44.976Z,5.30
2023-05-05T17:13:13.707Z,3.80
2023-05-05T17:15:41.328Z,3.00
2023-05-05T17:18:08.233Z,4.20
2023-05-05T17:20:35.724Z,2.90
2023-05-05T17:23:02.961Z,3.60
2023-05-05T17:25:30.004Z,3.10
2023-05-05T17:27:57.062Z,3.20
2023-05-05T17:30:23.821Z,3.50
2023-05-05T17:32:50.501Z,3.70
2023-05-05T17:35:17.430Z,2.20
2023-05-05T17:37:44.457Z,2.80
2023-05-05T17:40:11.372Z,4.60
2023-05-05T17:42:38.531Z,5.30
2023-05-05T17:45:07.082Z,4.30
2023-05-05T17:47:34.611Z,3.10
2023-05-05T17:50:01.648Z,3.80
2023-05-05T17:52:28.371Z,3.80
2023-05-05T17:54:55.214Z,2.70
2023-05-05T17:57:22.257Z,2.10
2023-05-05T17:59:51.251Z,5.20
2023-05-05T18:02:19.080Z,4.00
2023-05-05T18:04:46.039Z,2.20
2023-05-05T18:07:14.018Z,3.20
2023-05-05T18:09:41.870Z,3.60
2023-05-05T18:12:08.789Z,4.00
2023-05-05T18:14:35.670Z,3.80
2023-05-05T18:17:02.748Z,3.70
2023-05-05T18:19:30.232Z,4.60
2023-05-05T18:22:06.548Z,3.70
2023-05-05T18:24:33.440Z,5.60
2023-05-05T18:27:00.840Z,5.30
2023-05-05T18:29:28.310Z,4.90
2023-05-05T18:31:55.112Z,4.20
2023-05-05T18:34:22.003Z,5.70
2023-05-05T18:36:53.453Z,5.50
2023-05-05T18:39:20.735Z,5.60
2023-05-05T18:41:47.541Z,3.40
2023-05-05T18:44:15.238Z,4.80
2023-05-05T18:46:46.292Z,3.80
2023-05-05T18:51:40.114Z,3.10
2023-05-05T18:54:07.052Z,4.30
2023-05-05T18:56:33.895Z,4.20
2023-05-05T18:59:00.618Z,5.60
2023-05-05T19:01:27.429Z,4.00
2023-05-05T19:03:54.759Z,3.10
2023-05-05T19:06:21.434Z,4.40
2023-05-05T19:08:48.136Z,5.90
2023-05-05T19:11:14.952Z,3.70
2023-05-05T19:13:41.740Z,4.10
2023-05-05T19:16:09.771Z,5.20
2023-05-05T19:18:36.487Z,4.30
2023-05-05T19:21:03.169Z,6.20
2023-05-05T19:23:30.309Z,4.90
2023-05-05T19:25:57.434Z,5.00
2023-05-05T19:28:24.261Z,6.30
2023-05-05T19:30:51.741Z,4.50
2023-05-05T19:33:18.399Z,4.00
2023-05-05T19:35:45.106Z,4.50
2023-05-05T19:38:12.165Z,4.80
2023-05-05T19:40:39.426Z,5.40
2023-05-05T19:43:07.171Z,4.80
2023-05-05T19:45:34.009Z,5.20
2023-05-05T19:48:01.525Z,4.70
2023-05-05T19:50:29.749Z,4.40
2023-05-05T19:52:57.377Z,3.50
2023-05-05T19:55:24.298Z,6.90
2023-05-05T19:57:51.376Z,3.70
2023-05-05T20:00:19.117Z,3.00
2023-05-05T20:02:46.660Z,2.10
2023-05-05T20:05:15.777Z,3.80
2023-05-05T20:07:44.241Z,3.80
2023-05-05T20:10:12.448Z,3.50
2023-05-05T20:12:46.914Z,3.90
2023-05-05T20:15:22.455Z,4.30
2023-05-05T20:17:49.878Z,4.80
2023-05-05T20:20:21.298Z,4.80
2023-05-05T20:22:48.884Z,3.70
2023-05-05T20:25:16.340Z,4.20
2023-05-05T20:27:44.733Z,3.90
2023-05-05T20:30:12.449Z,3.90
2023-05-05T20:32:39.979Z,4.40
2023-05-05T20:35:08.230Z,3.60
2023-05-05T20:37:35.060Z,3.80
2023-05-05T20:40:01.797Z,2.80
2023-05-05T20:42:29.072Z,2.40
2023-05-05T20:44:56.004Z,3.60
2023-05-05T20:47:23.502Z,4.60
2023-05-05T20:49:51.550Z,5.60
2023-05-05T20:52:18.422Z,7.30
2023-05-05T20:54:45.768Z,5.40
2023-05-05T20:57:12.568Z,4.50
2023-05-05T20:59:39.310Z,4.10
2023-05-05T21:02:06.812Z,5.10
2023-05-05T21:04:33.597Z,7.20
2023-05-05T21:07:00.750Z,6.20
2023-05-05T21:09:27.672Z,7.40
2023-05-05T21:11:54.390Z,9.80
2023-05-05T21:14:21.379Z,11.00
2023-05-05T21:16:48.078Z,5.90
2023-05-05T21:19:21.070Z,6.60
2023-05-05T21:21:47.992Z,7.60
2023-05-05T21:24:14.951Z,7.70
2023-05-05T21:26:43.774Z,6.20
2023-05-05T21:29:11.037Z,6.50
2023-05-05T21:31:37.888Z,5.10
2023-05-05T21:34:04.914Z,5.10
2023-05-05T21:36:33.100Z,4.20
2023-05-05T21:39:00.490Z,5.80
2023-05-05T21:41:27.710Z,4.60
2023-05-05T21:43:54.427Z,6.10
2023-05-05T21:46:21.204Z,6.50
2023-05-05T21:48:48.048Z,9.00
2023-05-05T21:51:14.776Z,9.00
2023-05-05T21:53:41.417Z,8.40
2023-05-05T21:56:08.561Z,12.00
2023-05-05T21:58:35.287Z,6.70
2023-05-05T22:01:02.267Z,7.30
2023-05-05T22:03:29.306Z,5.30
2023-05-05T22:05:56.175Z,6.10
2023-05-05T22:08:22.976Z,5.60
2023-05-05T22:10:49.597Z,7.70
2023-05-05T22:13:16.475Z,6.90
2023-05-05T22:15:47.119Z,4.80
2023-05-05T22:18:15.092Z,6.10
2023-05-05T22:20:42.627Z,6.20
2023-05-05T22:23:09.322Z,5.00
2023-05-05T22:25:36.090Z,5.80
2023-05-05T22:28:03.592Z,6.00
2023-05-05T22:30:30.498Z,6.40
2023-05-05T22:32:57.241Z,6.40
2023-05-05T22:35:24.483Z,5.70
2023-05-05T22:37:51.074Z,7.00
2023-05-05T22:40:17.740Z,5.60
2023-05-05T22:42:44.438Z,5.20
2023-05-05T22:45:12.375Z,6.70
2023-05-05T22:47:39.339Z,6.60
2023-05-05T22:50:07.528Z,5.30
2023-05-05T22:52:34.324Z,6.90
2023-05-05T22:55:01.280Z,6.90
2023-05-05T22:57:27.972Z,6.10
2023-05-05T22:59:54.730Z,7.40
2023-05-05T23:02:21.502Z,6.70
2023-05-05T23:04:48.321Z,6.40
2023-05-05T23:07:15.260Z,6.90
2023-05-05T23:09:41.971Z,6.90
2023-05-05T23:12:08.618Z,5.00
2023-05-05T23:14:35.607Z,5.70
2023-05-05T23:17:02.432Z,5.60
2023-05-05T23:19:31.831Z,5.00
2023-05-05T23:21:59.393Z,5.30
2023-05-05T23:24:27.696Z,5.50
2023-05-05T23:26:57.484Z,4.30
2023-05-05T23:29:24.416Z,4.70
2023-05-05T23:31:51.156Z,9.70
2023-05-05T23:34:17.922Z,6.20
2023-05-05T23:36:44.751Z,3.70
2023-05-05T23:39:11.587Z,4.50
2023-05-05T23:41:38.314Z,5.80
2023-05-05T23:44:04.964Z,5.00
2023-05-05T23:46:31.693Z,6.20
2023-05-05T23:48:58.492Z,5.60
2023-05-05T23:51:26.653Z,6.50
2023-05-05T23:53:55.711Z,6.90
2023-05-05T23:56:23.904Z,6.60
2023-05-05T23:58:51.780Z,6.50
